sensor_id;sensor_type;location;lat;lon;timestamp;P1;durP1;ratioP1;P2;durP2;ratioP2
71679;SDS011;59512;42.662;23.254;2022-11-21T00:01:18;16.53;;;10.90;;
71679;SDS011;59512;42.662;23.254;2022-11-21T00:03:45;14.88;;;8.82;;
71679;SDS011;59512;42.662;23.254;2022-11-21T00:06:11;17.43;;;10.70;;
71679;SDS011;59512;42.662;23.254;2022-11-21T00:08:36;17.27;;;10.50;;
71679;SDS011;59512;42.662;23.254;2022-11-21T00:11:02;17.70;;;11.02;;
71679;SDS011;59512;42.662;23.254;2022-11-21T00:13:27;17.83;;;11.60;;
71679;SDS011;59512;42.662;23.254;2022-11-21T00:15:53;18.50;;;11.07;;
71679;SDS011;59512;42.662;23.254;2022-11-21T00:18:18;18.47;;;10.97;;
71679;SDS011;59512;42.662;23.254;2022-11-21T00:20:43;19.20;;;12.40;;
71679;SDS011;59512;42.662;23.254;2022-11-21T00:23:09;21.25;;;13.23;;
71679;SDS011;59512;42.662;23.254;2022-11-21T00:25:35;15.77;;;10.93;;
71679;SDS011;59512;42.662;23.254;2022-11-21T00:28:01;18.98;;;11.55;;
71679;SDS011;59512;42.662;23.254;2022-11-21T00:30:27;18.05;;;10.80;;
71679;SDS011;59512;42.662;23.254;2022-11-21T00:32:52;17.50;;;10.17;;
71679;SDS011;59512;42.662;23.254;2022-11-21T00:35:17;15.00;;;9.43;;
71679;SDS011;59512;42.662;23.254;2022-11-21T00:37:43;13.70;;;8.60;;
71679;SDS011;59512;42.662;23.254;2022-11-21T00:40:09;12.90;;;8.20;;
71679;SDS011;59512;42.662;23.254;2022-11-21T00:42:34;14.27;;;8.48;;
71679;SDS011;59512;42.662;23.254;2022-11-21T00:45:00;11.77;;;7.53;;
71679;SDS011;59512;42.662;23.254;2022-11-21T00:47:25;12.57;;;7.35;;
71679;SDS011;59512;42.662;23.254;2022-11-21T00:49:51;11.30;;;7.07;;
71679;SDS011;59512;42.662;23.254;2022-11-21T00:52:16;15.33;;;8.13;;
71679;SDS011;59512;42.662;23.254;2022-11-21T00:54:42;13.00;;;8.25;;
71679;SDS011;59512;42.662;23.254;2022-11-21T00:57:07;15.07;;;8.83;;
71679;SDS011;59512;42.662;23.254;2022-11-21T00:59:33;15.37;;;9.20;;
71679;SDS011;59512;42.662;23.254;2022-11-21T01:01:58;14.93;;;8.50;;
71679;SDS011;59512;42.662;23.254;2022-11-21T01:04:24;13.25;;;7.88;;
71679;SDS011;59512;42.662;23.254;2022-11-21T01:06:49;18.63;;;9.43;;
71679;SDS011;59512;42.662;23.254;2022-11-21T01:09:14;14.13;;;8.60;;
71679;SDS011;59512;42.662;23.254;2022-11-21T01:11:40;14.20;;;8.67;;
71679;SDS011;59512;42.662;23.254;2022-11-21T01:14:05;9.13;;;5.00;;
71679;SDS011;59512;42.662;23.254;2022-11-21T01:16:31;10.95;;;5.22;;
71679;SDS011;59512;42.662;23.254;2022-11-21T01:18:56;12.05;;;3.90;;
71679;SDS011;59512;42.662;23.254;2022-11-21T01:21:28;8.47;;;4.27;;
71679;SDS011;59512;42.662;23.254;2022-11-21T01:23:55;10.25;;;6.32;;
71679;SDS011;59512;42.662;23.254;2022-11-21T01:26:23;11.20;;;5.88;;
71679;SDS011;59512;42.662;23.254;2022-11-21T01:28:50;10.03;;;4.97;;
71679;SDS011;59512;42.662;23.254;2022-11-21T01:31:17;13.48;;;5.47;;
71679;SDS011;59512;42.662;23.254;2022-11-21T01:33:44;12.85;;;7.22;;
71679;SDS011;59512;42.662;23.254;2022-11-21T01:36:11;14.13;;;7.97;;
71679;SDS011;59512;42.662;23.254;2022-11-21T01:38:41;16.53;;;9.27;;
71679;SDS011;59512;42.662;23.254;2022-11-21T01:41:11;15.65;;;8.68;;
71679;SDS011;59512;42.662;23.254;2022-11-21T01:43:38;12.93;;;7.10;;
71679;SDS011;59512;42.662;23.254;2022-11-21T01:48:39;10.40;;;3.22;;
71679;SDS011;59512;42.662;23.254;2022-11-21T01:51:24;10.25;;;4.68;;
71679;SDS011;59512;42.662;23.254;2022-11-21T01:59:16;12.47;;;5.80;;
71679;SDS011;59512;42.662;23.254;2022-11-21T02:01:45;13.00;;;5.85;;
71679;SDS011;59512;42.662;23.254;2022-11-21T02:04:12;11.70;;;6.38;;
71679;SDS011;59512;42.662;23.254;2022-11-21T02:06:38;13.93;;;6.90;;
71679;SDS011;59512;42.662;23.254;2022-11-21T02:09:03;10.70;;;6.27;;
71679;SDS011;59512;42.662;23.254;2022-11-21T02:11:35;8.10;;;2.97;;
71679;SDS011;59512;42.662;23.254;2022-11-21T02:14:02;8.35;;;3.95;;
71679;SDS011;59512;42.662;23.254;2022-11-21T02:16:28;6.93;;;1.33;;
71679;SDS011;59512;42.662;23.254;2022-11-21T02:18:53;6.22;;;1.27;;
71679;SDS011;59512;42.662;23.254;2022-11-21T02:21:25;6.03;;;1.17;;
71679;SDS011;59512;42.662;23.254;2022-11-21T02:26:28;7.60;;;1.37;;
71679;SDS011;59512;42.662;23.254;2022-11-21T02:28:54;8.43;;;1.70;;
71679;SDS011;59512;42.662;23.254;2022-11-21T02:31:20;5.32;;;1.30;;
71679;SDS011;59512;42.662;23.254;2022-11-21T02:33:46;7.23;;;1.70;;
71679;SDS011;59512;42.662;23.254;2022-11-21T02:39:17;7.20;;;1.47;;
71679;SDS011;59512;42.662;23.254;2022-11-21T02:42:32;8.25;;;1.60;;
71679;SDS011;59512;42.662;23.254;2022-11-21T02:44:39;5.72;;;1.02;;
71679;SDS011;59512;42.662;23.254;2022-11-21T02:47:27;5.00;;;0.95;;
71679;SDS011;59512;42.662;23.254;2022-11-21T02:49:55;7.28;;;1.50;;
71679;SDS011;59512;42.662;23.254;2022-11-21T02:52:38;7.83;;;2.17;;
71679;SDS011;59512;42.662;23.254;2022-11-21T02:55:04;8.00;;;2.10;;
71679;SDS011;59512;42.662;23.254;2022-11-21T02:57:30;6.75;;;1.15;;
71679;SDS011;59512;42.662;23.254;2022-11-21T02:59:55;8.70;;;3.07;;
71679;SDS011;59512;42.662;23.254;2022-11-21T03:02:20;6.17;;;2.30;;
71679;SDS011;59512;42.662;23.254;2022-11-21T03:04:46;6.40;;;1.90;;
71679;SDS011;59512;42.662;23.254;2022-11-21T03:07:12;8.45;;;2.05;;
71679;SDS011;59512;42.662;23.254;2022-11-21T03:09:37;8.17;;;1.90;;
71679;SDS011;59512;42.662;23.254;2022-11-21T03:12:06;7.50;;;1.80;;
71679;SDS011;59512;42.662;23.254;2022-11-21T03:14:35;5.43;;;2.30;;
71679;SDS011;59512;42.662;23.254;2022-11-21T03:17:02;9.15;;;2.75;;
71679;SDS011;59512;42.662;23.254;2022-11-21T03:19:27;8.15;;;2.20;;
71679;SDS011;59512;42.662;23.254;2022-11-21T03:21:53;7.57;;;2.50;;
71679;SDS011;59512;42.662;23.254;2022-11-21T03:24:18;6.90;;;2.00;;
71679;SDS011;59512;42.662;23.254;2022-11-21T03:26:44;7.20;;;2.13;;
71679;SDS011;59512;42.662;23.254;2022-11-21T03:29:09;6.22;;;2.03;;
71679;SDS011;59512;42.662;23.254;2022-11-21T03:31:35;7.17;;;2.37;;
71679;SDS011;59512;42.662;23.254;2022-11-21T03:34:00;8.60;;;2.57;;
71679;SDS011;59512;42.662;23.254;2022-11-21T03:36:26;8.93;;;2.37;;
71679;SDS011;59512;42.662;23.254;2022-11-21T03:38:51;9.17;;;2.70;;
71679;SDS011;59512;42.662;23.254;2022-11-21T03:41:19;5.20;;;1.30;;
71679;SDS011;59512;42.662;23.254;2022-11-21T03:44:01;5.72;;;1.25;;
71679;SDS011;59512;42.662;23.254;2022-11-21T03:46:28;10.65;;;1.40;;
71679;SDS011;59512;42.662;23.254;2022-11-21T03:48:54;5.35;;;1.17;;
71679;SDS011;59512;42.662;23.254;2022-11-21T03:51:20;5.73;;;1.13;;
71679;SDS011;59512;42.662;23.254;2022-11-21T03:53:46;6.38;;;1.25;;
71679;SDS011;59512;42.662;23.254;2022-11-21T03:56:11;6.43;;;1.27;;
71679;SDS011;59512;42.662;23.254;2022-11-21T03:58:37;6.63;;;1.00;;
71679;SDS011;59512;42.662;23.254;2022-11-21T04:01:02;7.07;;;1.30;;
71679;SDS011;59512;42.662;23.254;2022-11-21T04:03:28;6.50;;;1.48;;
71679;SDS011;59512;42.662;23.254;2022-11-21T04:05:54;6.00;;;1.30;;
71679;SDS011;59512;42.662;23.254;2022-11-21T04:08:19;6.40;;;1.10;;
71679;SDS011;59512;42.662;23.254;2022-11-21T04:10:51;4.53;;;1.17;;
71679;SDS011;59512;42.662;23.254;2022-11-21T04:13:17;4.15;;;0.80;;
71679;SDS011;59512;42.662;23.254;2022-11-21T04:15:43;4.83;;;0.80;;
71679;SDS011;59512;42.662;23.254;2022-11-21T04:18:09;5.95;;;1.15;;
71679;SDS011;59512;42.662;23.254;2022-11-21T04:20:35;5.93;;;1.35;;
71679;SDS011;59512;42.662;23.254;2022-11-21T04:23:00;6.50;;;1.30;;
71679;SDS011;59512;42.662;23.254;2022-11-21T04:25:26;6.87;;;1.10;;
71679;SDS011;59512;42.662;23.254;2022-11-21T04:27:54;4.90;;;1.00;;
71679;SDS011;59512;42.662;23.254;2022-11-21T04:30:23;6.57;;;1.20;;
71679;SDS011;59512;42.662;23.254;2022-11-21T04:32:49;8.47;;;1.00;;
71679;SDS011;59512;42.662;23.254;2022-11-21T04:35:18;5.25;;;1.05;;
71679;SDS011;59512;42.662;23.254;2022-11-21T04:37:43;4.70;;;1.10;;
71679;SDS011;59512;42.662;23.254;2022-11-21T04:40:09;7.90;;;1.17;;
71679;SDS011;59512;42.662;23.254;2022-11-21T04:42:35;6.35;;;1.27;;
71679;SDS011;59512;42.662;23.254;2022-11-21T04:45:00;6.47;;;1.02;;
71679;SDS011;59512;42.662;23.254;2022-11-21T04:47:26;4.72;;;1.05;;
71679;SDS011;59512;42.662;23.254;2022-11-21T04:49:51;4.33;;;1.00;;
71679;SDS011;59512;42.662;23.254;2022-11-21T04:52:16;4.30;;;1.17;;
71679;SDS011;59512;42.662;23.254;2022-11-21T04:54:42;4.63;;;0.80;;
71679;SDS011;59512;42.662;23.254;2022-11-21T04:57:07;5.00;;;0.97;;
71679;SDS011;59512;42.662;23.254;2022-11-21T04:59:33;7.32;;;1.40;;
71679;SDS011;59512;42.662;23.254;2022-11-21T05:01:58;3.40;;;0.85;;
71679;SDS011;59512;42.662;23.254;2022-11-21T05:04:23;6.40;;;1.33;;
71679;SDS011;59512;42.662;23.254;2022-11-21T05:06:49;4.77;;;1.00;;
71679;SDS011;59512;42.662;23.254;2022-11-21T05:09:14;5.07;;;1.17;;
71679;SDS011;59512;42.662;23.254;2022-11-21T05:11:40;7.90;;;1.40;;
71679;SDS011;59512;42.662;23.254;2022-11-21T05:14:24;3.47;;;1.02;;
71679;SDS011;59512;42.662;23.254;2022-11-21T05:16:51;4.78;;;1.08;;
71679;SDS011;59512;42.662;23.254;2022-11-21T05:19:16;8.27;;;1.45;;
71679;SDS011;59512;42.662;23.254;2022-11-21T05:21:42;5.57;;;1.03;;
71679;SDS011;59512;42.662;23.254;2022-11-21T05:24:07;7.60;;;1.47;;
71679;SDS011;59512;42.662;23.254;2022-11-21T05:26:33;6.33;;;0.83;;
71679;SDS011;59512;42.662;23.254;2022-11-21T05:28:58;8.05;;;0.98;;
71679;SDS011;59512;42.662;23.254;2022-11-21T05:31:23;4.50;;;1.10;;
71679;SDS011;59512;42.662;23.254;2022-11-21T05:33:49;5.67;;;1.17;;
71679;SDS011;59512;42.662;23.254;2022-11-21T05:36:14;6.63;;;1.37;;
71679;SDS011;59512;42.662;23.254;2022-11-21T05:38:40;7.83;;;1.77;;
71679;SDS011;59512;42.662;23.254;2022-11-21T05:41:05;7.88;;;1.40;;
71679;SDS011;59512;42.662;23.254;2022-11-21T05:43:30;9.65;;;1.70;;
71679;SDS011;59512;42.662;23.254;2022-11-21T05:46:15;5.73;;;1.40;;
71679;SDS011;59512;42.662;23.254;2022-11-21T05:48:42;8.82;;;1.50;;
71679;SDS011;59512;42.662;23.254;2022-11-21T05:51:08;11.38;;;1.90;;
71679;SDS011;59512;42.662;23.254;2022-11-21T05:53:34;7.77;;;1.53;;
71679;SDS011;59512;42.662;23.254;2022-11-21T05:56:03;5.38;;;1.15;;
71679;SDS011;59512;42.662;23.254;2022-11-21T05:58:30;6.63;;;1.25;;
71679;SDS011;59512;42.662;23.254;2022-11-21T06:00:56;8.27;;;1.73;;
71679;SDS011;59512;42.662;23.254;2022-11-21T06:03:22;4.93;;;1.10;;
71679;SDS011;59512;42.662;23.254;2022-11-21T06:05:51;4.35;;;1.30;;
71679;SDS011;59512;42.662;23.254;2022-11-21T06:08:27;4.93;;;1.00;;
71679;SDS011;59512;42.662;23.254;2022-11-21T06:10:53;4.13;;;0.90;;
71679;SDS011;59512;42.662;23.254;2022-11-21T06:13:19;4.50;;;1.20;;
71679;SDS011;59512;42.662;23.254;2022-11-21T06:15:56;2.92;;;0.80;;
71679;SDS011;59512;42.662;23.254;2022-11-21T06:18:24;4.90;;;1.10;;
71679;SDS011;59512;42.662;23.254;2022-11-21T06:20:49;3.72;;;0.93;;
71679;SDS011;59512;42.662;23.254;2022-11-21T06:23:15;3.93;;;1.10;;
71679;SDS011;59512;42.662;23.254;2022-11-21T06:25:41;5.45;;;1.50;;
71679;SDS011;59512;42.662;23.254;2022-11-21T06:28:07;5.03;;;1.10;;
71679;SDS011;59512;42.662;23.254;2022-11-21T06:30:33;5.07;;;1.20;;
71679;SDS011;59512;42.662;23.254;2022-11-21T06:32:58;3.60;;;1.00;;
71679;SDS011;59512;42.662;23.254;2022-11-21T06:35:24;4.60;;;1.30;;
71679;SDS011;59512;42.662;23.254;2022-11-21T06:37:49;6.43;;;2.50;;
71679;SDS011;59512;42.662;23.254;2022-11-21T06:40:15;6.13;;;2.23;;
71679;SDS011;59512;42.662;23.254;2022-11-21T06:42:40;5.57;;;1.57;;
71679;SDS011;59512;42.662;23.254;2022-11-21T06:45:06;4.37;;;1.60;;
71679;SDS011;59512;42.662;23.254;2022-11-21T06:47:34;5.10;;;1.90;;
71679;SDS011;59512;42.662;23.254;2022-11-21T06:50:00;3.88;;;1.58;;
71679;SDS011;59512;42.662;23.254;2022-11-21T06:52:25;3.90;;;1.40;;
71679;SDS011;59512;42.662;23.254;2022-11-21T06:54:51;5.27;;;1.60;;
71679;SDS011;59512;42.662;23.254;2022-11-21T06:57:16;4.73;;;1.67;;
71679;SDS011;59512;42.662;23.254;2022-11-21T06:59:42;3.65;;;1.40;;
71679;SDS011;59512;42.662;23.254;2022-11-21T07:02:13;3.85;;;1.20;;
71679;SDS011;59512;42.662;23.254;2022-11-21T07:04:39;4.40;;;1.37;;
71679;SDS011;59512;42.662;23.254;2022-11-21T07:07:04;6.97;;;1.67;;
71679;SDS011;59512;42.662;23.254;2022-11-21T07:09:30;5.03;;;1.80;;
71679;SDS011;59512;42.662;23.254;2022-11-21T07:11:57;6.65;;;2.60;;
71679;SDS011;59512;42.662;23.254;2022-11-21T07:14:43;5.25;;;1.60;;
71679;SDS011;59512;42.662;23.254;2022-11-21T07:17:12;6.37;;;1.60;;
71679;SDS011;59512;42.662;23.254;2022-11-21T07:19:37;4.88;;;1.25;;
71679;SDS011;59512;42.662;23.254;2022-11-21T07:22:03;6.23;;;2.73;;
71679;SDS011;59512;42.662;23.254;2022-11-21T07:24:29;4.90;;;1.37;;
71679;SDS011;59512;42.662;23.254;2022-11-21T07:26:54;5.10;;;1.63;;
71679;SDS011;59512;42.662;23.254;2022-11-21T07:29:19;6.78;;;1.77;;
71679;SDS011;59512;42.662;23.254;2022-11-21T07:31:45;6.33;;;2.00;;
71679;SDS011;59512;42.662;23.254;2022-11-21T07:34:10;5.03;;;1.73;;
71679;SDS011;59512;42.662;23.254;2022-11-21T07:36:36;5.63;;;1.90;;
71679;SDS011;59512;42.662;23.254;2022-11-21T07:39:01;6.13;;;1.40;;
71679;SDS011;59512;42.662;23.254;2022-11-21T07:41:27;5.07;;;1.92;;
71679;SDS011;59512;42.662;23.254;2022-11-21T07:43:52;10.90;;;2.63;;
71679;SDS011;59512;42.662;23.254;2022-11-21T07:46:18;11.53;;;5.10;;
71679;SDS011;59512;42.662;23.254;2022-11-21T07:48:43;4.65;;;1.42;;
71679;SDS011;59512;42.662;23.254;2022-11-21T07:51:08;4.83;;;1.50;;
71679;SDS011;59512;42.662;23.254;2022-11-21T07:53:35;4.07;;;1.37;;
71679;SDS011;59512;42.662;23.254;2022-11-21T07:56:00;3.95;;;1.55;;
71679;SDS011;59512;42.662;23.254;2022-11-21T07:58:26;6.27;;;2.10;;
71679;SDS011;59512;42.662;23.254;2022-11-21T08:00:51;5.95;;;1.50;;
71679;SDS011;59512;42.662;23.254;2022-11-21T08:03:17;6.53;;;1.60;;
71679;SDS011;59512;42.662;23.254;2022-11-21T08:05:43;3.43;;;1.20;;
71679;SDS011;59512;42.662;23.254;2022-11-21T08:08:09;4.20;;;1.08;;
71679;SDS011;59512;42.662;23.254;2022-11-21T08:10:37;3.47;;;1.20;;
71679;SDS011;59512;42.662;23.254;2022-11-21T08:13:03;4.03;;;1.25;;
71679;SDS011;59512;42.662;23.254;2022-11-21T08:15:29;4.57;;;1.30;;
71679;SDS011;59512;42.662;23.254;2022-11-21T08:17:54;3.50;;;1.30;;
71679;SDS011;59512;42.662;23.254;2022-11-21T08:20:20;4.95;;;1.52;;
71679;SDS011;59512;42.662;23.254;2022-11-21T08:22:45;2.83;;;1.03;;
71679;SDS011;59512;42.662;23.254;2022-11-21T08:25:11;5.30;;;1.63;;
71679;SDS011;59512;42.662;23.254;2022-11-21T08:27:37;4.30;;;1.60;;
71679;SDS011;59512;42.662;23.254;2022-11-21T08:30:04;6.40;;;2.40;;
71679;SDS011;59512;42.662;23.254;2022-11-21T08:32:30;6.68;;;2.85;;
71679;SDS011;59512;42.662;23.254;2022-11-21T08:34:56;7.13;;;3.10;;
71679;SDS011;59512;42.662;23.254;2022-11-21T08:37:21;7.60;;;2.30;;
71679;SDS011;59512;42.662;23.254;2022-11-21T08:39:46;6.40;;;2.10;;
71679;SDS011;59512;42.662;23.254;2022-11-21T08:42:12;6.45;;;2.40;;
71679;SDS011;59512;42.662;23.254;2022-11-21T08:44:37;5.63;;;2.30;;
71679;SDS011;59512;42.662;23.254;2022-11-21T08:47:03;5.57;;;2.20;;
71679;SDS011;59512;42.662;23.254;2022-11-21T08:49:30;5.10;;;1.98;;
71679;SDS011;59512;42.662;23.254;2022-11-21T08:51:55;4.93;;;2.07;;
71679;SDS011;59512;42.662;23.254;2022-11-21T08:54:21;6.10;;;1.80;;
71679;SDS011;59512;42.662;23.254;2022-11-21T08:56:48;5.53;;;2.20;;
71679;SDS011;59512;42.662;23.254;2022-11-21T08:59:14;5.25;;;2.00;;
71679;SDS011;59512;42.662;23.254;2022-11-21T09:01:40;4.63;;;1.48;;
71679;SDS011;59512;42.662;23.254;2022-11-21T09:04:06;6.13;;;1.90;;
71679;SDS011;59512;42.662;23.254;2022-11-21T09:06:32;6.43;;;2.67;;
71679;SDS011;59512;42.662;23.254;2022-11-21T09:08:57;4.93;;;1.70;;
71679;SDS011;59512;42.662;23.254;2022-11-21T09:11:23;4.47;;;1.30;;
71679;SDS011;59512;42.662;23.254;2022-11-21T09:13:51;5.47;;;1.90;;
71679;SDS011;59512;42.662;23.254;2022-11-21T09:16:36;4.30;;;1.50;;
71679;SDS011;59512;42.662;23.254;2022-11-21T09:19:20;5.95;;;2.10;;
71679;SDS011;59512;42.662;23.254;2022-11-21T09:21:49;5.57;;;1.90;;
71679;SDS011;59512;42.662;23.254;2022-11-21T09:24:15;5.30;;;1.85;;
71679;SDS011;59512;42.662;23.254;2022-11-21T09:26:40;5.38;;;1.92;;
71679;SDS011;59512;42.662;23.254;2022-11-21T09:29:06;5.90;;;2.33;;
71679;SDS011;59512;42.662;23.254;2022-11-21T09:31:31;5.97;;;2.80;;
71679;SDS011;59512;42.662;23.254;2022-11-21T09:33:56;7.00;;;2.60;;
71679;SDS011;59512;42.662;23.254;2022-11-21T09:36:22;9.15;;;2.60;;
71679;SDS011;59512;42.662;23.254;2022-11-21T09:38:50;7.73;;;2.87;;
71679;SDS011;59512;42.662;23.254;2022-11-21T09:46:52;7.85;;;3.90;;
71679;SDS011;59512;42.662;23.254;2022-11-21T09:49:25;6.38;;;3.10;;
71679;SDS011;59512;42.662;23.254;2022-11-21T09:51:51;7.00;;;3.47;;
71679;SDS011;59512;42.662;23.254;2022-11-21T09:56:51;10.20;;;5.90;;
71679;SDS011;59512;42.662;23.254;2022-11-21T10:02:00;10.45;;;5.75;;
71679;SDS011;59512;42.662;23.254;2022-11-21T10:04:26;8.90;;;4.17;;
71679;SDS011;59512;42.662;23.254;2022-11-21T10:07:10;7.78;;;3.50;;
71679;SDS011;59512;42.662;23.254;2022-11-21T10:21:01;6.22;;;4.03;;
71679;SDS011;59512;42.662;23.254;2022-11-21T10:29:21;8.30;;;4.90;;
71679;SDS011;59512;42.662;23.254;2022-11-21T10:31:48;7.28;;;4.75;;
71679;SDS011;59512;42.662;23.254;2022-11-21T10:34:14;6.65;;;3.90;;
71679;SDS011;59512;42.662;23.254;2022-11-21T10:36:44;6.47;;;4.00;;
71679;SDS011;59512;42.662;23.254;2022-11-21T10:39:24;7.63;;;3.83;;
71679;SDS011;59512;42.662;23.254;2022-11-21T10:42:09;7.30;;;4.40;;
71679;SDS011;59512;42.662;23.254;2022-11-21T10:44:49;6.68;;;4.00;;
71679;SDS011;59512;42.662;23.254;2022-11-21T10:47:33;6.80;;;3.80;;
71679;SDS011;59512;42.662;23.254;2022-11-21T10:52:33;5.87;;;3.00;;
71679;SDS011;59512;42.662;23.254;2022-11-21T10:57:35;7.82;;;3.38;;
71679;SDS011;59512;42.662;23.254;2022-11-21T11:03:03;6.15;;;2.90;;
71679;SDS011;59512;42.662;23.254;2022-11-21T11:05:37;6.67;;;3.27;;
71679;SDS011;59512;42.662;23.254;2022-11-21T11:11:34;6.25;;;3.50;;
71679;SDS011;59512;42.662;23.254;2022-11-21T11:13:31;6.93;;;3.45;;
71679;SDS011;59512;42.662;23.254;2022-11-21T11:18:30;7.13;;;3.50;;
71679;SDS011;59512;42.662;23.254;2022-11-21T11:21:08;7.45;;;4.30;;
71679;SDS011;59512;42.662;23.254;2022-11-21T11:23:46;7.53;;;3.47;;
71679;SDS011;59512;42.662;23.254;2022-11-21T11:26:23;8.40;;;4.00;;
71679;SDS011;59512;42.662;23.254;2022-11-21T11:31:40;6.60;;;3.17;;
71679;SDS011;59512;42.662;23.254;2022-11-21T11:34:13;6.05;;;2.72;;
71679;SDS011;59512;42.662;23.254;2022-11-21T11:37:26;6.47;;;2.83;;
71679;SDS011;59512;42.662;23.254;2022-11-21T11:42:08;9.32;;;4.30;;
71679;SDS011;59512;42.662;23.254;2022-11-21T11:47:57;8.38;;;3.75;;
71679;SDS011;59512;42.662;23.254;2022-11-21T11:50:35;6.32;;;3.03;;
71679;SDS011;59512;42.662;23.254;2022-11-21T11:53:05;7.40;;;3.85;;
71679;SDS011;59512;42.662;23.254;2022-11-21T11:55:42;6.22;;;3.00;;
71679;SDS011;59512;42.662;23.254;2022-11-21T11:58:33;6.27;;;3.27;;
71679;SDS011;59512;42.662;23.254;2022-11-21T12:06:15;7.38;;;3.85;;
71679;SDS011;59512;42.662;23.254;2022-11-21T12:14:15;6.88;;;3.90;;
71679;SDS011;59512;42.662;23.254;2022-11-21T12:17:04;7.13;;;3.65;;
71679;SDS011;59512;42.662;23.254;2022-11-21T12:19:30;6.15;;;3.42;;
71679;SDS011;59512;42.662;23.254;2022-11-21T12:21:58;7.00;;;3.47;;
71679;SDS011;59512;42.662;23.254;2022-11-21T12:24:23;6.20;;;2.73;;
71679;SDS011;59512;42.662;23.254;2022-11-21T12:26:57;8.20;;;3.50;;
71679;SDS011;59512;42.662;23.254;2022-11-21T12:32:14;5.47;;;2.50;;
71679;SDS011;59512;42.662;23.254;2022-11-21T12:57:10;7.45;;;3.33;;
71679;SDS011;59512;42.662;23.254;2022-11-21T13:00:11;10.20;;;4.60;;
71679;SDS011;59512;42.662;23.254;2022-11-21T13:05:35;6.47;;;3.28;;
71679;SDS011;59512;42.662;23.254;2022-11-21T13:10:45;27.52;;;15.43;;
71679;SDS011;59512;42.662;23.254;2022-11-21T13:13:27;8.75;;;5.05;;
71679;SDS011;59512;42.662;23.254;2022-11-21T13:15:57;8.30;;;4.63;;
71679;SDS011;59512;42.662;23.254;2022-11-21T13:18:30;7.85;;;4.05;;
71679;SDS011;59512;42.662;23.254;2022-11-21T13:20:59;8.07;;;4.82;;
71679;SDS011;59512;42.662;23.254;2022-11-21T13:23:38;7.77;;;4.43;;
71679;SDS011;59512;42.662;23.254;2022-11-21T13:28:48;11.18;;;5.22;;
71679;SDS011;59512;42.662;23.254;2022-11-21T13:31:32;9.18;;;5.25;;
71679;SDS011;59512;42.662;23.254;2022-11-21T13:33:59;9.77;;;6.00;;
71679;SDS011;59512;42.662;23.254;2022-11-21T13:44:39;10.75;;;6.72;;
71679;SDS011;59512;42.662;23.254;2022-11-21T13:52:23;10.57;;;6.37;;
71679;SDS011;59512;42.662;23.254;2022-11-21T13:57:57;11.27;;;6.90;;
71679;SDS011;59512;42.662;23.254;2022-11-21T14:11:59;10.05;;;6.10;;
71679;SDS011;59512;42.662;23.254;2022-11-21T14:14:45;12.75;;;8.25;;
71679;SDS011;59512;42.662;23.254;2022-11-21T14:19:43;11.47;;;6.67;;
71679;SDS011;59512;42.662;23.254;2022-11-21T14:22:13;10.60;;;6.30;;
71679;SDS011;59512;42.662;23.254;2022-11-21T14:24:41;11.77;;;6.85;;
71679;SDS011;59512;42.662;23.254;2022-11-21T14:27:07;12.53;;;7.83;;
71679;SDS011;59512;42.662;23.254;2022-11-21T14:29:50;13.63;;;6.90;;
71679;SDS011;59512;42.662;23.254;2022-11-21T14:32:15;15.00;;;7.97;;
71679;SDS011;59512;42.662;23.254;2022-11-21T14:34:41;10.23;;;5.80;;
71679;SDS011;59512;42.662;23.254;2022-11-21T14:37:06;12.03;;;7.27;;
71679;SDS011;59512;42.662;23.254;2022-11-21T14:39:32;11.65;;;7.30;;
71679;SDS011;59512;42.662;23.254;2022-11-21T14:42:02;12.13;;;6.20;;
71679;SDS011;59512;42.662;23.254;2022-11-21T14:44:28;11.30;;;6.20;;
71679;SDS011;59512;42.662;23.254;2022-11-21T14:49:48;10.60;;;7.13;;
71679;SDS011;59512;42.662;23.254;2022-11-21T14:52:16;11.07;;;6.88;;
71679;SDS011;59512;42.662;23.254;2022-11-21T14:54:46;10.23;;;6.75;;
71679;SDS011;59512;42.662;23.254;2022-11-21T14:57:31;11.40;;;7.05;;
71679;SDS011;59512;42.662;23.254;2022-11-21T15:00:00;12.18;;;7.90;;
71679;SDS011;59512;42.662;23.254;2022-11-21T15:02:30;10.87;;;7.67;;
71679;SDS011;59512;42.662;23.254;2022-11-21T15:05:04;11.60;;;7.70;;
71679;SDS011;59512;42.662;23.254;2022-11-21T15:07:37;11.32;;;7.63;;
71679;SDS011;59512;42.662;23.254;2022-11-21T15:10:05;11.40;;;7.53;;
71679;SDS011;59512;42.662;23.254;2022-11-21T15:18:26;11.90;;;7.97;;
71679;SDS011;59512;42.662;23.254;2022-11-21T15:20:54;12.18;;;8.05;;
71679;SDS011;59512;42.662;23.254;2022-11-21T15:23:25;11.47;;;7.60;;
71679;SDS011;59512;42.662;23.254;2022-11-21T15:26:02;12.07;;;8.35;;
71679;SDS011;59512;42.662;23.254;2022-11-21T15:28:28;12.03;;;8.40;;
71679;SDS011;59512;42.662;23.254;2022-11-21T15:31:13;13.40;;;8.93;;
71679;SDS011;59512;42.662;23.254;2022-11-21T15:36:36;23.17;;;13.38;;
71679;SDS011;59512;42.662;23.254;2022-11-21T15:39:03;16.70;;;9.97;;
71679;SDS011;59512;42.662;23.254;2022-11-21T15:41:34;19.20;;;12.05;;
71679;SDS011;59512;42.662;23.254;2022-11-21T15:48:57;19.00;;;12.18;;
71679;SDS011;59512;42.662;23.254;2022-11-21T15:51:38;20.73;;;13.53;;
71679;SDS011;59512;42.662;23.254;2022-11-21T15:54:05;15.20;;;10.23;;
71679;SDS011;59512;42.662;23.254;2022-11-21T15:56:33;14.40;;;10.30;;
71679;SDS011;59512;42.662;23.254;2022-11-21T15:58:59;15.53;;;9.37;;
71679;SDS011;59512;42.662;23.254;2022-11-21T16:06:11;16.17;;;10.37;;
71679;SDS011;59512;42.662;23.254;2022-11-21T16:08:37;18.52;;;13.02;;
71679;SDS011;59512;42.662;23.254;2022-11-21T16:11:02;13.43;;;9.37;;
71679;SDS011;59512;42.662;23.254;2022-11-21T16:13:28;13.83;;;9.57;;
71679;SDS011;59512;42.662;23.254;2022-11-21T16:15:53;13.67;;;9.20;;
71679;SDS011;59512;42.662;23.254;2022-11-21T16:18:19;11.80;;;7.88;;
71679;SDS011;59512;42.662;23.254;2022-11-21T16:20:44;10.60;;;7.50;;
71679;SDS011;59512;42.662;23.254;2022-11-21T16:23:10;11.60;;;7.73;;
71679;SDS011;59512;42.662;23.254;2022-11-21T16:25:36;10.68;;;7.55;;
71679;SDS011;59512;42.662;23.254;2022-11-21T16:28:02;14.02;;;8.95;;
71679;SDS011;59512;42.662;23.254;2022-11-21T16:30:27;13.70;;;8.43;;
71679;SDS011;59512;42.662;23.254;2022-11-21T16:32:53;13.63;;;7.90;;
71679;SDS011;59512;42.662;23.254;2022-11-21T16:35:20;11.35;;;8.05;;
71679;SDS011;59512;42.662;23.254;2022-11-21T16:37:47;11.35;;;8.27;;
71679;SDS011;59512;42.662;23.254;2022-11-21T16:40:12;12.77;;;8.20;;
71679;SDS011;59512;42.662;23.254;2022-11-21T16:42:38;13.97;;;9.27;;
71679;SDS011;59512;42.662;23.254;2022-11-21T16:45:03;16.70;;;11.27;;
71679;SDS011;59512;42.662;23.254;2022-11-21T16:47:29;19.40;;;13.63;;
71679;SDS011;59512;42.662;23.254;2022-11-21T16:49:54;15.10;;;9.63;;
71679;SDS011;59512;42.662;23.254;2022-11-21T16:52:20;15.77;;;10.70;;
71679;SDS011;59512;42.662;23.254;2022-11-21T16:54:45;17.20;;;12.00;;
71679;SDS011;59512;42.662;23.254;2022-11-21T16:57:10;16.27;;;10.93;;
71679;SDS011;59512;42.662;23.254;2022-11-21T16:59:36;14.63;;;9.30;;
71679;SDS011;59512;42.662;23.254;2022-11-21T17:02:01;12.37;;;8.07;;
71679;SDS011;59512;42.662;23.254;2022-11-21T17:04:27;14.57;;;9.98;;
71679;SDS011;59512;42.662;23.254;2022-11-21T17:06:53;14.10;;;10.10;;
71679;SDS011;59512;42.662;23.254;2022-11-21T17:09:18;13.90;;;8.80;;
71679;SDS011;59512;42.662;23.254;2022-11-21T17:11:44;15.30;;;10.40;;
71679;SDS011;59512;42.662;23.254;2022-11-21T17:14:10;13.80;;;9.38;;